createdAt,value
2022-09-28T00:00:06.092Z,702.45
2022-09-28T00:00:16.090Z,702.48
2022-09-28T00:00:26.093Z,702.64
2022-09-28T00:00:36.094Z,702.63
2022-09-28T00:00:46.096Z,702.63
2022-09-28T00:00:56.110Z,702.60
2022-09-28T00:01:06.095Z,702.78
2022-09-28T00:01:16.099Z,702.75
2022-09-28T00:01:26.196Z,702.69
2022-09-28T00:01:36.107Z,702.72
2022-09-28T00:01:46.169Z,702.89
2022-09-28T00:01:56.264Z,702.88
2022-09-28T00:02:06.237Z,702.77
2022-09-28T00:02:16.266Z,702.95
2022-09-28T00:02:26.221Z,702.92
2022-09-28T00:02:36.187Z,702.86
2022-09-28T00:02:46.144Z,702.90
2022-09-28T00:02:56.148Z,702.79
2022-09-28T00:03:06.200Z,702.77
2022-09-28T00:03:16.106Z,702.82
2022-09-28T00:03:26.107Z,702.77
2022-09-28T00:03:36.107Z,702.79
2022-09-28T00:03:46.108Z,702.76
2022-09-28T00:03:56.114Z,702.89
2022-09-28T00:04:06.112Z,702.81
2022-09-28T00:04:16.113Z,702.91
2022-09-28T00:04:26.117Z,702.78
2022-09-28T00:04:36.142Z,702.89
2022-09-28T00:04:46.112Z,702.90
2022-09-28T00:04:56.110Z,702.88
2022-09-28T00:05:06.113Z,702.97
2022-09-28T00:05:16.121Z,702.85
2022-09-28T00:05:26.115Z,702.97
2022-09-28T00:05:36.116Z,703.06
2022-09-28T00:05:46.122Z,702.91
2022-09-28T00:05:56.114Z,702.86
2022-09-28T00:06:06.116Z,702.88
2022-09-28T00:06:16.121Z,702.86
2022-09-28T00:06:26.116Z,703.01
2022-09-28T00:06:36.117Z,703.04
2022-09-28T00:06:46.123Z,703.18
2022-09-28T00:06:56.118Z,703.03
2022-09-28T00:07:06.122Z,703.10
2022-09-28T00:07:16.122Z,703.02
2022-09-28T00:07:26.124Z,703.12
2022-09-28T00:07:36.121Z,703.11
2022-09-28T00:07:46.122Z,703.02
2022-09-28T00:07:56.131Z,703.09
2022-09-28T00:08:06.128Z,703.06
2022-09-28T00:08:16.128Z,703.09
2022-09-28T00:08:26.126Z,703.13
2022-09-28T00:08:36.129Z,703.19
2022-09-28T00:08:46.125Z,703.26
2022-09-28T00:08:56.130Z,703.40
2022-09-28T00:09:06.128Z,703.36
2022-09-28T00:09:16.175Z,703.42
2022-09-28T00:09:26.137Z,703.41
2022-09-28T00:09:36.129Z,703.44
2022-09-28T00:09:46.135Z,703.47
2022-09-28T00:09:56.131Z,703.50
2022-09-28T00:10:06.135Z,703.63
2022-09-28T00:10:16.132Z,703.56
2022-09-28T00:10:26.135Z,703.55
2022-09-28T00:10:36.139Z,703.56
2022-09-28T00:10:46.166Z,703.60
2022-09-28T00:10:56.141Z,703.62
2022-09-28T00:11:06.136Z,703.66
2022-09-28T00:11:16.142Z,703.80
2022-09-28T00:11:26.138Z,703.67
2022-09-28T00:11:36.139Z,703.59
2022-09-28T00:11:46.182Z,703.58
2022-09-28T00:11:56.145Z,703.55
2022-09-28T00:12:06.141Z,703.61
2022-09-28T00:12:16.147Z,703.48
2022-09-28T00:12:26.138Z,703.43
2022-09-28T00:12:36.141Z,703.59
2022-09-28T00:12:46.153Z,703.47
2022-09-28T00:12:56.144Z,703.45
2022-09-28T00:13:06.144Z,703.49
2022-09-28T00:13:16.146Z,703.61
2022-09-28T00:13:26.141Z,703.64
2022-09-28T00:13:36.143Z,703.54
2022-09-28T00:13:46.143Z,703.42
2022-09-28T00:13:56.144Z,703.34
2022-09-28T00:14:06.146Z,703.55
2022-09-28T00:14:16.152Z,703.48
2022-09-28T00:14:26.151Z,703.39
2022-09-28T00:14:36.149Z,703.44
2022-09-28T00:14:46.158Z,703.49
2022-09-28T00:14:56.149Z,703.59
2022-09-28T00:15:06.151Z,703.57
2022-09-28T00:15:16.161Z,703.47
2022-09-28T00:15:26.158Z,703.57
2022-09-28T00:15:36.158Z,703.65
2022-09-28T00:15:46.161Z,703.60
2022-09-28T00:15:56.199Z,703.53
2022-09-28T00:16:06.275Z,703.56
2022-09-28T00:16:16.192Z,703.56
2022-09-28T00:16:26.210Z,703.55
2022-09-28T00:16:36.215Z,703.54
2022-09-28T00:16:46.184Z,703.54
2022-09-28T00:16:56.156Z,703.46
2022-09-28T00:17:06.158Z,703.54
2022-09-28T00:17:16.157Z,703.51
2022-09-28T00:17:26.143Z,703.59
2022-09-28T00:17:36.161Z,703.45
2022-09-28T00:17:46.157Z,703.44
2022-09-28T00:17:56.157Z,703.39
2022-09-28T00:18:06.158Z,703.48
2022-09-28T00:18:16.159Z,703.49
2022-09-28T00:18:26.160Z,703.36
2022-09-28T00:18:36.160Z,703.38
2022-09-28T00:18:46.162Z,703.36
2022-09-28T00:18:56.160Z,703.42
2022-09-28T00:19:06.163Z,703.53
2022-09-28T00:19:16.350Z,703.57
2022-09-28T00:19:26.167Z,703.45
2022-09-28T00:19:36.169Z,703.44
2022-09-28T00:19:46.170Z,703.37
2022-09-28T00:19:56.168Z,703.50
2022-09-28T00:20:06.167Z,703.50
2022-09-28T00:20:16.167Z,703.48
2022-09-28T00:20:26.170Z,703.54
2022-09-28T00:20:36.155Z,703.59
2022-09-28T00:20:46.161Z,703.54
2022-09-28T00:20:56.175Z,703.61
2022-09-28T00:21:06.173Z,703.73
2022-09-28T00:21:16.176Z,703.78
2022-09-28T00:21:26.175Z,703.80
2022-09-28T00:21:36.172Z,703.72
2022-09-28T00:21:46.179Z,703.71
2022-09-28T00:21:56.176Z,703.83
2022-09-28T00:22:06.177Z,703.84
2022-09-28T00:22:16.175Z,703.77
2022-09-28T00:22:26.178Z,703.85
2022-09-28T00:22:36.180Z,703.83
2022-09-28T00:22:46.182Z,703.81
2022-09-28T00:22:56.181Z,704.01
2022-09-28T00:23:06.183Z,704.13
2022-09-28T00:23:16.180Z,704.13
2022-09-28T00:23:26.187Z,704.09
2022-09-28T00:23:36.183Z,704.22
2022-09-28T00:23:46.186Z,704.31
2022-09-28T00:23:56.192Z,704.13
2022-09-28T00:24:06.190Z,704.27
2022-09-28T00:24:16.190Z,704.40
2022-09-28T00:24:27.815Z,704.39
2022-09-28T00:24:36.190Z,704.38
2022-09-28T00:24:46.196Z,704.60
2022-09-28T00:24:56.188Z,704.56
2022-09-28T00:25:06.195Z,704.54
2022-09-28T00:25:16.195Z,704.65
2022-09-28T00:25:26.199Z,704.60
2022-09-28T00:25:36.194Z,704.73
2022-09-28T00:25:46.196Z,704.76
2022-09-28T00:25:56.194Z,704.68
2022-09-28T00:26:06.197Z,704.76
2022-09-28T00:26:16.200Z,704.70
2022-09-28T00:26:26.199Z,704.67
2022-09-28T00:26:36.205Z,704.73
2022-09-28T00:26:46.199Z,704.69
2022-09-28T00:26:56.206Z,704.67
2022-09-28T00:27:06.202Z,704.71
2022-09-28T00:27:16.201Z,704.84
2022-09-28T00:27:26.198Z,704.85
2022-09-28T00:27:36.205Z,704.81
2022-09-28T00:27:46.201Z,704.80
2022-09-28T00:27:56.200Z,704.77
2022-09-28T00:28:06.202Z,704.81
2022-09-28T00:28:16.205Z,704.93
2022-09-28T00:28:26.207Z,704.94
2022-09-28T00:28:36.205Z,704.84
2022-09-28T00:28:46.206Z,704.87
2022-09-28T00:28:56.205Z,704.89
2022-09-28T00:29:06.210Z,704.80
2022-09-28T00:29:16.357Z,704.88
2022-09-28T00:29:26.207Z,704.93
2022-09-28T00:29:36.214Z,704.94
2022-09-28T00:29:46.222Z,704.91
2022-09-28T00:29:56.207Z,704.89
2022-09-28T00:30:06.216Z,704.86
2022-09-28T00:30:16.211Z,704.89
2022-09-28T00:30:26.211Z,704.82
2022-09-28T00:30:36.208Z,704.88
2022-09-28T00:30:46.209Z,704.90
2022-09-28T00:30:56.219Z,704.97
2022-09-28T00:31:06.281Z,705.01
2022-09-28T00:31:16.266Z,705.08
2022-09-28T00:31:26.320Z,705.09
2022-09-28T00:31:36.272Z,705.11
2022-09-28T00:31:46.284Z,705.15
2022-09-28T00:31:56.268Z,705.13
2022-09-28T00:32:06.218Z,705.07
2022-09-28T00:32:16.231Z,705.04
2022-09-28T00:32:26.229Z,705.05
2022-09-28T00:32:36.223Z,705.13
2022-09-28T00:32:46.221Z,705.21
2022-09-28T00:32:56.221Z,705.32
2022-09-28T00:33:06.225Z,705.34
2022-09-28T00:33:16.228Z,705.27
2022-09-28T00:33:26.226Z,705.30
2022-09-28T00:33:36.233Z,705.31
2022-09-28T00:33:46.239Z,705.38
2022-09-28T00:33:56.231Z,705.39
2022-09-28T00:34:06.236Z,705.37
2022-09-28T00:34:16.233Z,705.54
2022-09-28T00:34:26.227Z,705.46
2022-09-28T00:34:36.227Z,705.62
2022-09-28T00:34:46.232Z,705.50
2022-09-28T00:34:56.217Z,705.46
2022-09-28T00:35:06.232Z,705.57
2022-09-28T00:35:16.230Z,705.55
2022-09-28T00:35:26.231Z,705.62
2022-09-28T00:35:36.231Z,705.56
2022-09-28T00:35:46.235Z,705.52
2022-09-28T00:35:56.237Z,705.64
2022-09-28T00:36:06.234Z,705.71
2022-09-28T00:36:16.234Z,705.74
2022-09-28T00:36:26.235Z,705.70
2022-09-28T00:36:36.236Z,705.66
2022-09-28T00:36:46.235Z,705.76
2022-09-28T00:36:56.237Z,705.72
2022-09-28T00:37:06.237Z,705.77
2022-09-28T00:37:16.239Z,705.77
2022-09-28T00:37:26.240Z,705.80
2022-09-28T00:37:36.239Z,705.93
2022-09-28T00:37:46.240Z,705.94
2022-09-28T00:37:56.240Z,706.04
2022-09-28T00:38:06.240Z,706.09
2022-09-28T00:38:16.241Z,706.08
2022-09-28T00:38:26.244Z,706.07
2022-09-28T00:38:36.242Z,706.19
2022-09-28T00:38:46.242Z,706.33
2022-09-28T00:38:56.248Z,706.30
2022-09-28T00:39:06.244Z,706.32
2022-09-28T00:39:16.347Z,706.40
2022-09-28T00:39:26.256Z,706.46
2022-09-28T00:39:36.248Z,706.44
2022-09-28T00:39:46.252Z,706.40
2022-09-28T00:39:56.253Z,706.46
2022-09-28T00:40:06.256Z,706.43
2022-09-28T00:40:16.315Z,706.38
2022-09-28T00:40:26.264Z,706.36
2022-09-28T00:40:36.336Z,706.37
2022-09-28T00:40:46.302Z,706.31
2022-09-28T00:40:56.340Z,706.39
2022-09-28T00:41:06.261Z,706.49
2022-09-28T00:41:16.251Z,706.84
2022-09-28T00:41:26.256Z,706.83
2022-09-28T00:41:36.264Z,706.92
2022-09-28T00:41:46.258Z,706.96
2022-09-28T00:41:56.257Z,706.83
2022-09-28T00:42:06.257Z,706.72
2022-09-28T00:42:16.263Z,706.78
2022-09-28T00:42:26.261Z,707.03
2022-09-28T00:42:36.260Z,707.05
2022-09-28T00:42:46.261Z,707.06
2022-09-28T00:42:56.263Z,707.18
2022-09-28T00:43:06.265Z,707.17
2022-09-28T00:43:16.260Z,707.09
2022-09-28T00:43:26.261Z,707.06
2022-09-28T00:43:36.262Z,707.05
2022-09-28T00:43:46.262Z,707.10
2022-09-28T00:43:56.265Z,707.19
2022-09-28T00:44:06.265Z,707.18
2022-09-28T00:44:16.269Z,707.20
2022-09-28T00:44:26.278Z,707.19
2022-09-28T00:44:36.272Z,707.26
2022-09-28T00:44:46.272Z,707.29
2022-09-28T00:44:56.273Z,707.33
2022-09-28T00:45:06.267Z,707.42
2022-09-28T00:45:16.278Z,707.45
2022-09-28T00:45:26.314Z,707.45
2022-09-28T00:45:36.318Z,707.35
2022-09-28T00:45:46.349Z,707.47
2022-09-28T00:45:56.347Z,707.45
2022-09-28T00:46:06.315Z,707.41
2022-09-28T00:46:16.313Z,707.40
2022-09-28T00:46:26.275Z,707.52
2022-09-28T00:46:36.277Z,707.46
2022-09-28T00:46:46.273Z,707.47
2022-09-28T00:46:56.273Z,707.62
2022-09-28T00:47:06.272Z,707.62
2022-09-28T00:47:16.275Z,707.61
2022-09-28T00:47:26.281Z,707.64
2022-09-28T00:47:36.277Z,707.62
2022-09-28T00:47:46.277Z,707.75
2022-09-28T00:47:56.278Z,707.76
2022-09-28T00:48:06.292Z,707.68
2022-09-28T00:48:16.282Z,707.69
2022-09-28T00:48:26.283Z,707.79
2022-09-28T00:48:36.280Z,707.83
2022-09-28T00:48:46.278Z,707.80
2022-09-28T00:48:56.282Z,707.74
2022-09-28T00:49:06.284Z,707.96
2022-09-28T00:49:16.293Z,707.87
2022-09-28T00:49:26.280Z,707.84
2022-09-28T00:49:36.408Z,707.90
2022-09-28T00:49:46.315Z,707.88
2022-09-28T00:49:56.287Z,707.90
2022-09-28T00:50:06.285Z,707.97
2022-09-28T00:50:16.289Z,708.02
2022-09-28T00:50:26.290Z,707.94
2022-09-28T00:50:36.287Z,708.07
2022-09-28T00:50:46.287Z,708.09
2022-09-28T00:50:56.287Z,708.19
2022-09-28T00:51:06.293Z,708.16
2022-09-28T00:51:16.290Z,708.16
2022-09-28T00:51:26.288Z,708.18
2022-09-28T00:51:36.289Z,708.23
2022-09-28T00:51:46.297Z,708.23
2022-09-28T00:51:56.290Z,708.28
2022-09-28T00:52:06.294Z,708.23
2022-09-28T00:52:16.295Z,708.34
2022-09-28T00:52:26.298Z,708.30
2022-09-28T00:52:36.293Z,708.32
2022-09-28T00:52:46.296Z,708.18
2022-09-28T00:52:56.300Z,708.16
2022-09-28T00:53:06.299Z,708.28
2022-09-28T00:53:16.301Z,708.30
2022-09-28T00:53:26.299Z,708.32
2022-09-28T00:53:36.298Z,708.39
2022-09-28T00:53:46.308Z,708.29
2022-09-28T00:53:56.308Z,708.18
2022-09-28T00:54:06.298Z,708.23
2022-09-28T00:54:16.307Z,708.33
2022-09-28T00:54:26.307Z,708.34
2022-09-28T00:54:36.341Z,708.30
2022-09-28T00:54:46.309Z,708.28
2022-09-28T00:54:56.311Z,708.24
2022-09-28T00:55:06.301Z,708.38
2022-09-28T00:55:16.305Z,708.36
2022-09-28T00:55:26.304Z,708.31
2022-09-28T00:55:36.306Z,708.40
2022-09-28T00:55:46.304Z,708.32
2022-09-28T00:55:56.307Z,708.42
2022-09-28T00:56:06.305Z,708.49
2022-09-28T00:56:16.313Z,708.41
2022-09-28T00:56:26.306Z,708.46
2022-09-28T00:56:36.315Z,708.44
2022-09-28T00:56:46.309Z,708.48
2022-09-28T00:56:56.312Z,708.42
2022-09-28T00:57:06.308Z,708.45
2022-09-28T00:57:16.311Z,708.58
2022-09-28T00:57:26.313Z,708.69
2022-09-28T00:57:36.309Z,708.61
2022-09-28T00:57:46.311Z,708.80
2022-09-28T00:57:56.317Z,708.78
2022-09-28T00:58:06.325Z,708.78
2022-09-28T00:58:16.314Z,708.79
2022-09-28T00:58:26.315Z,708.84
2022-09-28T00:58:36.302Z,708.84
2022-09-28T00:58:46.317Z,708.81
2022-09-28T00:58:56.317Z,708.95
2022-09-28T00:59:06.318Z,708.99
2022-09-28T00:59:16.524Z,708.99
2022-09-28T00:59:26.322Z,709.01
2022-09-28T00:59:36.338Z,709.06
2022-09-28T00:59:46.327Z,709.09
2022-09-28T00:59:56.322Z,709.08
2022-09-28T01:00:06.322Z,709.19
2022-09-28T01:00:16.323Z,709.34
2022-09-28T01:00:26.323Z,709.30
2022-09-28T01:00:36.351Z,709.37
2022-09-28T01:00:46.378Z,709.42
2022-09-28T01:00:56.380Z,709.34
2022-09-28T01:01:06.383Z,709.31
2022-09-28T01:01:16.391Z,709.40
2022-09-28T01:01:26.481Z,709.49
2022-09-28T01:01:36.330Z,709.52
2022-09-28T01:01:46.367Z,709.60
2022-09-28T01:01:56.398Z,709.46
2022-09-28T01:02:06.414Z,709.41
2022-09-28T01:02:16.390Z,709.61
2022-09-28T01:02:26.377Z,709.51
2022-09-28T01:02:36.330Z,709.56
2022-09-28T01:02:46.331Z,709.49
2022-09-28T01:02:56.334Z,709.56
2022-09-28T01:03:06.333Z,709.46
2022-09-28T01:03:16.334Z,709.57
2022-09-28T01:03:26.338Z,709.58
2022-09-28T01:03:36.339Z,709.59
2022-09-28T01:03:46.338Z,709.70
2022-09-28T01:03:56.340Z,709.65
2022-09-28T01:04:06.338Z,709.65
2022-09-28T01:04:16.342Z,709.73
2022-09-28T01:04:29.821Z,709.81
2022-09-28T01:04:36.348Z,709.76
2022-09-28T01:04:46.353Z,709.81
2022-09-28T01:04:56.343Z,709.78
2022-09-28T01:05:06.347Z,709.83
2022-09-28T01:05:16.347Z,709.76
2022-09-28T01:05:26.367Z,709.82
2022-09-28T01:05:36.350Z,709.86
2022-09-28T01:05:46.347Z,709.82
2022-09-28T01:05:56.348Z,709.80
2022-09-28T01:06:06.361Z,709.80
2022-09-28T01:06:16.350Z,709.85
2022-09-28T01:06:26.349Z,709.76
2022-09-28T01:06:36.356Z,709.73
2022-09-28T01:06:46.356Z,709.80
2022-09-28T01:06:56.352Z,709.80
2022-09-28T01:07:06.355Z,709.72
2022-09-28T01:07:16.356Z,709.79
2022-09-28T01:07:26.352Z,709.82
2022-09-28T01:07:36.365Z,709.90
2022-09-28T01:07:46.360Z,709.82
2022-09-28T01:07:56.354Z,709.78
2022-09-28T01:08:06.364Z,709.74
2022-09-28T01:08:16.354Z,709.94
2022-09-28T01:08:26.356Z,709.94
2022-09-28T01:08:36.367Z,710.04
2022-09-28T01:08:46.360Z,710.04
2022-09-28T01:08:56.361Z,710.01
2022-09-28T01:09:06.370Z,710.00
2022-09-28T01:09:16.529Z,710.12
2022-09-28T01:09:26.361Z,709.94
2022-09-28T01:09:36.363Z,710.01
2022-09-28T01:09:46.381Z,710.02
2022-09-28T01:09:56.362Z,710.11
2022-09-28T01:10:06.361Z,710.05
2022-09-28T01:10:16.370Z,709.93
2022-09-28T01:10:26.363Z,710.05
2022-09-28T01:10:36.364Z,709.94
2022-09-28T01:10:46.369Z,710.15
2022-09-28T01:10:56.367Z,710.04
2022-09-28T01:11:06.367Z,710.09
2022-09-28T01:11:16.381Z,710.14
2022-09-28T01:11:26.367Z,710.06
2022-09-28T01:11:36.371Z,709.99
2022-09-28T01:11:46.371Z,710.04
2022-09-28T01:11:56.366Z,710.15
2022-09-28T01:12:06.371Z,710.16
2022-09-28T01:12:16.371Z,710.18
2022-09-28T01:12:26.371Z,710.25
2022-09-28T01:12:36.375Z,710.14
2022-09-28T01:12:46.381Z,710.24
2022-09-28T01:12:56.371Z,710.20
2022-09-28T01:13:06.379Z,710.04
2022-09-28T01:13:16.375Z,710.12
2022-09-28T01:13:26.395Z,710.18
2022-09-28T01:13:36.373Z,710.06
2022-09-28T01:13:46.373Z,710.20
2022-09-28T01:13:56.376Z,710.04
2022-09-28T01:14:06.380Z,710.11
2022-09-28T01:14:16.376Z,710.14
2022-09-28T01:14:26.376Z,710.35
2022-09-28T01:14:36.376Z,710.31
2022-09-28T01:14:46.398Z,710.33
2022-09-28T01:14:56.380Z,710.35
2022-09-28T01:15:06.378Z,710.35
2022-09-28T01:15:16.379Z,710.40
2022-09-28T01:15:26.388Z,710.57
2022-09-28T01:15:36.391Z,710.47
2022-09-28T01:15:46.382Z,710.58
2022-09-28T01:15:56.433Z,710.65
2022-09-28T01:16:06.422Z,710.69
2022-09-28T01:16:16.460Z,710.76
2022-09-28T01:16:26.439Z,710.80
2022-09-28T01:16:36.418Z,710.76
2022-09-28T01:16:46.415Z,710.71
2022-09-28T01:16:56.394Z,710.79
2022-09-28T01:17:06.390Z,710.78
2022-09-28T01:17:16.392Z,710.76
2022-09-28T01:17:26.394Z,710.90
2022-09-28T01:17:36.393Z,710.93
2022-09-28T01:17:46.403Z,710.94
2022-09-28T01:17:56.390Z,710.88
2022-09-28T01:18:06.388Z,710.93
2022-09-28T01:18:16.391Z,710.94
2022-09-28T01:18:26.396Z,710.76
2022-09-28T01:18:36.395Z,710.95
2022-09-28T01:18:46.391Z,711.00
2022-09-28T01:18:56.396Z,710.99
2022-09-28T01:19:06.395Z,710.98
2022-09-28T01:19:16.478Z,710.93
2022-09-28T01:19:26.400Z,711.09
2022-09-28T01:19:36.393Z,711.10
2022-09-28T01:19:46.413Z,711.17
2022-09-28T01:19:56.403Z,711.13
2022-09-28T01:20:06.404Z,711.19
2022-09-28T01:20:16.400Z,711.10
2022-09-28T01:20:26.400Z,711.15
2022-09-28T01:20:36.405Z,711.18
2022-09-28T01:20:46.401Z,711.13
2022-09-28T01:20:56.399Z,711.24
2022-09-28T01:21:06.404Z,711.23
2022-09-28T01:21:16.403Z,711.20
2022-09-28T01:21:26.404Z,711.25
2022-09-28T01:21:36.404Z,711.37
2022-09-28T01:21:46.408Z,711.30
2022-09-28T01:21:56.403Z,711.28
2022-09-28T01:22:06.415Z,711.27
2022-09-28T01:22:16.404Z,711.41
2022-09-28T01:22:26.412Z,711.43
2022-09-28T01:22:36.411Z,711.42
2022-09-28T01:22:46.409Z,711.40
2022-09-28T01:22:56.406Z,711.36
2022-09-28T01:23:06.407Z,711.48
2022-09-28T01:23:16.409Z,711.47
2022-09-28T01:23:26.408Z,711.41
2022-09-28T01:23:36.411Z,711.51
2022-09-28T01:23:46.411Z,711.50
2022-09-28T01:23:56.412Z,711.58
2022-09-28T01:24:06.413Z,711.55
2022-09-28T01:24:16.414Z,711.44
2022-09-28T01:24:26.413Z,711.58
2022-09-28T01:24:36.419Z,711.57
2022-09-28T01:24:46.438Z,711.52
2022-09-28T01:24:56.416Z,711.57
2022-09-28T01:25:06.421Z,711.67
2022-09-28T01:25:16.418Z,711.72
2022-09-28T01:25:26.419Z,711.76
2022-09-28T01:25:36.422Z,711.78
2022-09-28T01:25:46.420Z,711.70
2022-09-28T01:25:56.422Z,711.74
2022-09-28T01:26:06.424Z,711.80
2022-09-28T01:26:16.421Z,711.89
2022-09-28T01:26:26.421Z,711.84
2022-09-28T01:26:36.423Z,711.77
2022-09-28T01:26:46.431Z,711.92
2022-09-28T01:26:56.428Z,711.94
2022-09-28T01:27:06.425Z,712.04
2022-09-28T01:27:16.433Z,712.07
2022-09-28T01:27:26.438Z,712.00
2022-09-28T01:27:36.429Z,712.07
2022-09-28T01:27:46.435Z,711.95
2022-09-28T01:27:56.411Z,711.95
2022-09-28T01:28:06.427Z,712.05
2022-09-28T01:28:16.435Z,711.97
2022-09-28T01:28:26.433Z,712.05
2022-09-28T01:28:36.429Z,712.02
2022-09-28T01:28:46.434Z,712.10
2022-09-28T01:28:56.433Z,712.09
2022-09-28T01:29:06.431Z,712.09
2022-09-28T01:29:16.563Z,712.03
2022-09-28T01:29:26.433Z,711.93
2022-09-28T01:29:36.433Z,711.98
2022-09-28T01:29:46.453Z,711.98
2022-09-28T01:29:56.438Z,711.97
2022-09-28T01:30:06.433Z,712.00
2022-09-28T01:30:16.438Z,712.05
2022-09-28T01:30:26.438Z,711.99
2022-09-28T01:30:36.436Z,711.93
2022-09-28T01:30:46.440Z,712.00
2022-09-28T01:30:56.443Z,711.97
2022-09-28T01:31:06.439Z,711.98
2022-09-28T01:31:16.489Z,712.18
2022-09-28T01:31:26.504Z,712.09
2022-09-28T01:31:36.513Z,712.03
2022-09-28T01:31:46.522Z,712.05
2022-09-28T01:31:56.464Z,712.05
2022-09-28T01:32:06.449Z,712.07
2022-09-28T01:32:16.439Z,712.03
2022-09-28T01:32:26.445Z,712.10
2022-09-28T01:32:36.443Z,712.10
2022-09-28T01:32:46.444Z,712.17
2022-09-28T01:32:56.448Z,712.11
2022-09-28T01:33:06.468Z,712.16
2022-09-28T01:33:16.447Z,712.14
2022-09-28T01:33:26.450Z,712.23
2022-09-28T01:33:36.455Z,712.30
2022-09-28T01:33:46.447Z,712.28
2022-09-28T01:33:56.452Z,712.23
2022-09-28T01:34:06.456Z,712.29
2022-09-28T01:34:16.451Z,712.25
2022-09-28T01:34:26.451Z,712.20
2022-09-28T01:34:36.453Z,712.36
2022-09-28T01:34:46.468Z,712.37
2022-09-28T01:34:56.456Z,712.43
2022-09-28T01:35:06.454Z,712.51
2022-09-28T01:35:16.454Z,712.49
2022-09-28T01:35:26.479Z,712.53
2022-09-28T01:35:36.457Z,712.56
2022-09-28T01:35:46.460Z,712.58
2022-09-28T01:35:56.456Z,712.61
2022-09-28T01:36:06.457Z,712.67
2022-09-28T01:36:16.461Z,712.69
2022-09-28T01:36:26.462Z,712.69
2022-09-28T01:36:36.462Z,712.71
2022-09-28T01:36:46.465Z,712.74
2022-09-28T01:36:56.462Z,712.80
2022-09-28T01:37:06.459Z,712.82
2022-09-28T01:37:16.466Z,712.79
2022-09-28T01:37:26.461Z,712.75
2022-09-28T01:37:36.469Z,712.73
2022-09-28T01:37:46.463Z,712.73
2022-09-28T01:37:56.464Z,712.76
2022-09-28T01:38:06.465Z,712.68
2022-09-28T01:38:16.467Z,712.74
2022-09-28T01:38:26.464Z,712.69
2022-09-28T01:38:36.466Z,712.68
2022-09-28T01:38:46.468Z,712.64
2022-09-28T01:38:56.468Z,712.67
2022-09-28T01:39:06.471Z,712.66
2022-09-28T01:39:16.542Z,712.65
2022-09-28T01:39:26.468Z,712.52
2022-09-28T01:39:36.473Z,712.54
2022-09-28T01:39:46.492Z,712.69
2022-09-28T01:39:56.470Z,712.69
2022-09-28T01:40:06.480Z,712.64
2022-09-28T01:40:16.534Z,712.67
2022-09-28T01:40:26.546Z,712.55
2022-09-28T01:40:36.511Z,712.55
2022-09-28T01:40:46.538Z,712.56
2022-09-28T01:40:56.566Z,712.53
2022-09-28T01:41:06.481Z,712.62
2022-09-28T01:41:16.500Z,712.54
2022-09-28T01:41:26.475Z,712.50
2022-09-28T01:41:36.482Z,712.56
2022-09-28T01:41:46.480Z,712.55
2022-09-28T01:41:56.479Z,712.49
2022-09-28T01:42:06.485Z,712.54
2022-09-28T01:42:16.479Z,712.52
2022-09-28T01:42:26.465Z,712.52
2022-09-28T01:42:36.487Z,712.50
2022-09-28T01:42:46.490Z,712.55
2022-09-28T01:42:56.484Z,712.50
2022-09-28T01:43:06.498Z,712.46
2022-09-28T01:43:16.482Z,712.44
2022-09-28T01:43:26.488Z,712.43
2022-09-28T01:43:36.489Z,712.38
2022-09-28T01:43:46.487Z,712.38
2022-09-28T01:43:56.487Z,712.38
2022-09-28T01:44:06.492Z,712.43
2022-09-28T01:44:16.487Z,712.37
2022-09-28T01:44:26.493Z,712.45
2022-09-28T01:44:36.493Z,712.46
2022-09-28T01:44:46.474Z,712.50
2022-09-28T01:44:56.495Z,712.55
2022-09-28T01:45:06.497Z,712.56
2022-09-28T01:45:16.497Z,712.62
2022-09-28T01:45:26.501Z,712.54
2022-09-28T01:45:36.539Z,712.62
2022-09-28T01:45:46.533Z,712.69
2022-09-28T01:45:56.519Z,712.71
2022-09-28T01:46:06.534Z,712.72
2022-09-28T01:46:16.510Z,712.74
2022-09-28T01:46:26.498Z,712.73
2022-09-28T01:46:36.494Z,712.82
2022-09-28T01:46:46.507Z,712.83
2022-09-28T01:46:56.497Z,712.81
2022-09-28T01:47:06.498Z,712.94
2022-09-28T01:47:16.499Z,712.93
2022-09-28T01:47:26.498Z,712.96
2022-09-28T01:47:36.499Z,712.92
2022-09-28T01:47:46.505Z,713.02
2022-09-28T01:47:56.506Z,712.95
2022-09-28T01:48:06.501Z,712.99
2022-09-28T01:48:16.500Z,713.07
2022-09-28T01:48:26.502Z,713.13
2022-09-28T01:48:36.502Z,713.18
2022-09-28T01:48:46.511Z,713.20
2022-09-28T01:48:56.508Z,713.22
2022-09-28T01:49:06.506Z,713.21
2022-09-28T01:49:16.811Z,713.25
2022-09-28T01:49:26.509Z,713.31
2022-09-28T01:49:36.509Z,713.32
2022-09-28T01:49:46.511Z,713.34
2022-09-28T01:49:56.512Z,713.36
2022-09-28T01:50:06.514Z,713.38
2022-09-28T01:50:16.517Z,713.48
2022-09-28T01:50:26.509Z,713.43
2022-09-28T01:50:36.512Z,713.51
2022-09-28T01:50:46.517Z,713.55
2022-09-28T01:50:56.515Z,713.52
2022-09-28T01:51:06.522Z,713.65
2022-09-28T01:51:16.516Z,713.61
2022-09-28T01:51:26.513Z,713.68
2022-09-28T01:51:36.524Z,713.75
2022-09-28T01:51:46.518Z,713.75
2022-09-28T01:51:56.527Z,713.76
2022-09-28T01:52:06.524Z,713.77
2022-09-28T01:52:16.523Z,713.73
2022-09-28T01:52:26.522Z,713.76
2022-09-28T01:52:36.525Z,713.70
2022-09-28T01:52:46.524Z,713.75
2022-09-28T01:52:56.525Z,713.72
2022-09-28T01:53:06.524Z,713.80
2022-09-28T01:53:16.526Z,713.71
2022-09-28T01:53:26.530Z,713.79
2022-09-28T01:53:36.535Z,713.79
2022-09-28T01:53:46.516Z,713.76
2022-09-28T01:53:56.525Z,713.83
2022-09-28T01:54:06.542Z,713.75
2022-09-28T01:54:16.528Z,713.83
2022-09-28T01:54:26.530Z,713.81
2022-09-28T01:54:36.532Z,713.80
2022-09-28T01:54:46.531Z,713.89
2022-09-28T01:54:56.542Z,713.87
2022-09-28T01:55:06.533Z,713.90
2022-09-28T01:55:16.536Z,713.81
2022-09-28T01:55:26.522Z,713.75
2022-09-28T01:55:36.533Z,713.77
2022-09-28T01:55:46.537Z,713.73
2022-09-28T01:55:56.540Z,713.59
2022-09-28T01:56:06.539Z,713.62
2022-09-28T01:56:16.534Z,713.60
2022-09-28T01:56:26.538Z,713.57
2022-09-28T01:56:36.538Z,713.61
2022-09-28T01:56:46.537Z,713.54
2022-09-28T01:56:56.542Z,713.64
2022-09-28T01:57:06.542Z,713.63
2022-09-28T01:57:16.541Z,713.65
2022-09-28T01:57:26.547Z,713.59
2022-09-28T01:57:36.544Z,713.70
2022-09-28T01:57:46.543Z,713.68
2022-09-28T01:57:56.540Z,713.71
2022-09-28T01:58:06.543Z,713.89
2022-09-28T01:58:16.540Z,713.91
2022-09-28T01:58:26.544Z,713.98
2022-09-28T01:58:36.544Z,713.96
2022-09-28T01:58:46.546Z,713.90
2022-09-28T01:58:56.544Z,713.98
2022-09-28T01:59:06.546Z,713.96
2022-09-28T01:59:16.721Z,714.15
2022-09-28T01:59:26.548Z,714.06
2022-09-28T01:59:36.549Z,714.19
2022-09-28T01:59:46.549Z,714.08
2022-09-28T01:59:56.552Z,714.17
2022-09-28T02:00:06.550Z,714.20
2022-09-28T02:00:16.565Z,714.23
2022-09-28T02:00:26.570Z,714.15
2022-09-28T02:00:36.620Z,714.28
2022-09-28T02:00:46.596Z,714.23
2022-09-28T02:00:56.581Z,714.22
2022-09-28T02:01:06.585Z,714.26
2022-09-28T02:01:16.641Z,714.27
2022-09-28T02:01:26.555Z,714.25
2022-09-28T02:01:36.559Z,714.24
2022-09-28T02:01:46.589Z,714.18
2022-09-28T02:01:56.608Z,714.21
2022-09-28T02:02:06.590Z,714.12
2022-09-28T02:02:16.652Z,714.21
2022-09-28T02:02:26.589Z,714.19
2022-09-28T02:02:36.561Z,714.21
2022-09-28T02:02:46.557Z,714.20
2022-09-28T02:02:56.557Z,714.20
2022-09-28T02:03:06.560Z,714.35
2022-09-28T02:03:16.557Z,714.37
2022-09-28T02:03:26.562Z,714.33
2022-09-28T02:03:36.566Z,714.28
2022-09-28T02:03:46.562Z,714.30
2022-09-28T02:03:56.560Z,714.38
2022-09-28T02:04:06.564Z,714.30
2022-09-28T02:04:16.569Z,714.43
2022-09-28T02:04:26.561Z,714.43
2022-09-28T02:04:36.562Z,714.52
2022-09-28T02:04:46.568Z,714.54